Messwerte Crescent City

Temperatur

Temperatur
°C
1575698400 22.00 22.00 14
1575702000 23.00 23.00 14
1575705600 0.00 0.00 14
1575709200 1.00 1.00 14
1575712800 2.00 2.00 13
1575716400 3.00 3.00 12
1575720000 4.00 4.00 12
1575723600 5.00 5.00 12
1575727200 6.00 6.00 12
1575730800 7.00 7.00 12
1575734400 8.00 8.00 13
1575738000 9.00 9.00 13
1575741600 10.00 10.00 14
1575745200 11.00 11.00 13
1575748800 12.00 12.00
1575752400 13.00 13.00 12
1575756000 14.00 14.00 12
1575759600 15.00 15.00 12
1575763200 16.00 16.00 12
1575766800 17.00 17.00 11
1575770400 18.00 18.00 12
1575774000 19.00 19.00 12
1575777600 20.00 20.00 11
1575781200 21.00 21.00

Wir danken unserem Partner:

Aktuellste Messwerte

Wettercharakter
Wetter: trüb und nass
Temperatur
11 °C
Feuchtigkeit
100 %
Wind
10 km/hWindrichtung: Süd
Luftdruck
1008 hPa
Messzeit: 7. Dezember 2019, 21.00Datenquelle: METAR

Weitere Messstationen in der Nähe

Messstation Temperatur Entfernung
Brookings 10 °C 32 km
Eureka 12 °C 109 km
Sexton Summit 3 °C 116 km
Medford 8 °C 130 km
Montague 5 °C 147 km
Mount Shasta 6 °C 168 km
Roseburg 10 °C 178 km

Wind

Windrichtung Böen Mittelwind
° km/h km/h
1575698400 22.00 21.00 - 22.00 160° 45 35
1575702000 23.00 22.00 - 23.00 160° 45 30
1575705600 0.00 23.00 - 0.00 160° 40 30
1575709200 1.00 0.00 - 1.00 160° 20
1575712800 2.00 1.00 - 2.00 170° 20
1575716400 3.00 2.00 - 3.00 150° 20
1575720000 4.00 3.00 - 4.00 150° 50 35
1575723600 5.00 4.00 - 5.00 160° 40 35
1575727200 6.00 5.00 - 6.00 170° 20
1575730800 7.00 6.00 - 7.00 160° 45 30
1575734400 8.00 7.00 - 8.00 150° 25
1575738000 9.00 8.00 - 9.00 130° 15
1575741600 10.00 9.00 - 10.00 140° 10
1575745200 11.00 10.00 - 11.00 110° 5
1575748800 12.00 11.00 - 12.00
1575752400 13.00 12.00 - 13.00 160° 20
1575756000 14.00 13.00 - 14.00 170° 60 40
1575759600 15.00 14.00 - 15.00 200° 60 35
1575763200 16.00 15.00 - 16.00 190° 25
1575766800 17.00 16.00 - 17.00 230° 45 20
1575770400 18.00 17.00 - 18.00 200° 20
1575774000 19.00 18.00 - 19.00 240° 35 15
1575777600 20.00 19.00 - 20.00 90° 10
1575781200 21.00 20.00 - 21.00

Ihre Wetterstation

Fehlt Ihre Wetterstation auf unserem Portal?

Schreiben Sie an network@meteonews.ch

Klima

Wann ist es am wärmsten? Wann regnet es am wenigsten? Unsere Klimadaten geben Auskunft.